createdAt,value
2019-04-14T00:02:41.043Z,4.70
2019-04-14T00:05:25.660Z,4.73
2019-04-14T00:08:13.317Z,4.87
2019-04-14T00:10:52.978Z,4.53
2019-04-14T00:13:47.752Z,4.90
2019-04-14T00:16:29.494Z,4.77
2019-04-14T00:19:08.753Z,4.90
2019-04-14T00:21:41.875Z,4.47
2019-04-14T00:24:21.250Z,4.97
2019-04-14T00:26:59.541Z,5.00
2019-04-14T00:29:47.943Z,4.70
2019-04-14T00:32:27.563Z,4.97
2019-04-14T00:35:18.801Z,4.93
2019-04-14T00:38:21.800Z,4.80
2019-04-14T00:41:15.805Z,4.90
2019-04-14T00:44:13.101Z,4.80
2019-04-14T00:46:56.078Z,4.70
2019-04-14T00:49:29.000Z,4.60
2019-04-14T00:52:06.158Z,4.73
2019-04-14T00:57:31.154Z,4.83
2019-04-14T01:00:10.381Z,5.10
2019-04-14T01:02:46.985Z,4.57
2019-04-14T01:05:37.493Z,4.67
2019-04-14T01:08:20.517Z,4.90
2019-04-14T01:11:03.027Z,4.70
2019-04-14T01:13:43.937Z,4.60
2019-04-14T01:16:23.848Z,4.93
2019-04-14T01:19:05.414Z,5.00
2019-04-14T01:21:50.208Z,4.87
2019-04-14T01:24:33.651Z,4.97
2019-04-14T01:27:14.588Z,4.60
2019-04-14T01:30:02.930Z,4.90
2019-04-14T01:32:50.095Z,5.10
2019-04-14T01:35:35.727Z,4.73
2019-04-14T01:38:10.269Z,4.80
2019-04-14T01:41:22.420Z,5.13
2019-04-14T01:43:58.233Z,4.73
2019-04-14T01:46:35.892Z,4.97
2019-04-14T01:49:20.361Z,4.70
2019-04-14T01:52:19.081Z,5.20
2019-04-14T01:55:20.048Z,4.60
2019-04-14T01:58:16.950Z,4.70
2019-04-14T02:01:31.065Z,5.00
2019-04-14T02:04:14.463Z,4.93
2019-04-14T02:06:46.234Z,4.40
2019-04-14T02:09:31.692Z,4.60
2019-04-14T02:12:17.014Z,4.80
2019-04-14T02:15:06.888Z,4.50
2019-04-14T02:17:43.889Z,4.37
2019-04-14T02:20:42.650Z,5.00
2019-04-14T02:23:30.672Z,4.67
2019-04-14T02:26:13.866Z,4.60
2019-04-14T02:28:50.889Z,4.57
2019-04-14T02:31:43.352Z,4.60
2019-04-14T02:34:36.222Z,5.10
2019-04-14T02:39:39.121Z,4.70
2019-04-14T02:45:00.354Z,4.70
2019-04-14T02:47:53.888Z,4.70
2019-04-14T02:50:10.847Z,5.20
2019-04-14T02:53:01.667Z,4.87
2019-04-14T02:56:02.013Z,4.60
2019-04-14T02:58:41.529Z,4.90
2019-04-14T03:01:42.205Z,4.70
2019-04-14T03:03:56.376Z,4.57
2019-04-14T03:09:30.582Z,4.37
2019-04-14T03:12:01.633Z,4.70
2019-04-14T03:14:45.503Z,4.60
2019-04-14T03:17:44.387Z,4.47
2019-04-14T03:20:40.070Z,4.73
2019-04-14T03:23:30.666Z,4.57
2019-04-14T03:26:15.323Z,4.77
2019-04-14T03:28:56.463Z,4.40
2019-04-14T03:32:00.102Z,4.30
2019-04-14T03:40:01.171Z,4.70
2019-04-14T03:42:49.015Z,4.33
2019-04-14T03:45:30.109Z,4.63
2019-04-14T03:48:22.411Z,4.37
2019-04-14T03:50:39.408Z,4.10
2019-04-14T03:53:36.088Z,4.37
2019-04-14T03:56:14.384Z,4.90
2019-04-14T03:58:48.605Z,4.43
2019-04-14T04:01:32.319Z,4.40
2019-04-14T04:04:18.368Z,4.50
2019-04-14T04:06:59.517Z,4.60
2019-04-14T04:09:43.230Z,4.70
2019-04-14T04:12:22.847Z,4.53
2019-04-14T04:15:01.947Z,4.47
2019-04-14T04:17:45.147Z,4.97
2019-04-14T04:20:33.442Z,4.40
2019-04-14T04:23:47.451Z,4.33
2019-04-14T04:26:45.400Z,4.70
2019-04-14T04:29:37.851Z,4.10
2019-04-14T04:32:49.827Z,4.33
2019-04-14T04:35:34.709Z,4.33
2019-04-14T04:38:35.585Z,4.60
2019-04-14T04:41:14.702Z,4.03
2019-04-14T04:43:53.815Z,4.30
2019-04-14T04:46:37.045Z,4.50
2019-04-14T04:49:11.648Z,4.53
2019-04-14T04:51:42.476Z,4.30
2019-04-14T04:54:18.878Z,4.50
2019-04-14T04:56:53.747Z,4.20
2019-04-14T04:59:29.952Z,3.97
2019-04-14T05:02:13.446Z,4.13
2019-04-14T05:04:43.919Z,4.20
2019-04-14T05:07:20.866Z,4.13
2019-04-14T05:10:39.288Z,4.30
2019-04-14T05:13:21.110Z,4.20
2019-04-14T05:16:06.322Z,4.33
2019-04-14T05:19:13.964Z,4.43
2019-04-14T05:21:45.250Z,4.23
2019-04-14T05:24:35.147Z,4.00
2019-04-14T05:27:30.146Z,4.20
2019-04-14T05:30:11.525Z,4.20
2019-04-14T05:32:54.645Z,4.07
2019-04-14T05:35:35.845Z,4.30
2019-04-14T05:38:16.922Z,4.10
2019-04-14T05:40:51.922Z,4.23
2019-04-14T05:43:41.575Z,4.13
2019-04-14T05:46:16.355Z,4.07
2019-04-14T05:48:56.166Z,3.90
2019-04-14T05:51:43.888Z,4.00
2019-04-14T05:54:20.931Z,4.17
2019-04-14T05:57:08.981Z,4.00
2019-04-14T05:59:49.019Z,4.10
2019-04-14T06:02:44.678Z,3.90
2019-04-14T06:05:36.160Z,3.90
2019-04-14T06:08:12.784Z,3.63
2019-04-14T06:10:56.732Z,3.70
2019-04-14T06:13:29.429Z,3.97
2019-04-14T06:16:16.051Z,3.77
2019-04-14T06:18:54.385Z,3.87
2019-04-14T06:21:25.554Z,3.73
2019-04-14T06:24:17.886Z,3.70
2019-04-14T06:27:02.867Z,3.67
2019-04-14T06:29:45.796Z,4.13
2019-04-14T06:32:35.892Z,4.00
2019-04-14T06:35:48.798Z,3.83
2019-04-14T06:38:29.582Z,3.80
2019-04-14T06:41:12.626Z,3.90
2019-04-14T06:43:57.121Z,3.87
2019-04-14T06:46:39.514Z,3.60
2019-04-14T06:49:19.983Z,3.97
2019-04-14T06:51:57.108Z,3.90
2019-04-14T06:54:37.026Z,3.70
2019-04-14T06:57:19.849Z,3.50
2019-04-14T06:59:58.309Z,3.50
2019-04-14T07:02:49.432Z,3.83
2019-04-14T07:05:25.277Z,3.87
2019-04-14T07:08:00.611Z,3.70
2019-04-14T07:10:34.815Z,3.50
2019-04-14T07:13:19.383Z,3.80
2019-04-14T07:16:00.424Z,3.37
2019-04-14T07:18:45.202Z,3.40
2019-04-14T07:21:36.496Z,3.43
2019-04-14T07:24:12.962Z,3.50
2019-04-14T07:27:29.869Z,3.90
2019-04-14T07:30:13.946Z,3.33
2019-04-14T07:33:07.746Z,3.50
2019-04-14T07:36:17.294Z,3.43
2019-04-14T07:39:12.519Z,3.23
2019-04-14T07:42:13.538Z,3.53
2019-04-14T07:45:24.412Z,3.40
2019-04-14T07:48:17.066Z,3.40
2019-04-14T07:51:02.425Z,3.37
2019-04-14T07:54:02.731Z,3.60
2019-04-14T07:57:11.458Z,3.60
2019-04-14T08:00:13.234Z,3.10
2019-04-14T08:03:04.935Z,3.23
2019-04-14T08:05:39.495Z,3.40
2019-04-14T08:08:12.482Z,3.53
2019-04-14T08:10:48.221Z,3.50
2019-04-14T08:13:23.268Z,3.40
2019-04-14T08:15:53.791Z,3.23
2019-04-14T08:18:24.974Z,3.40
2019-04-14T08:20:58.691Z,3.40
2019-04-14T08:23:30.230Z,3.33
2019-04-14T08:26:01.942Z,3.23
2019-04-14T08:28:35.570Z,3.47
2019-04-14T08:31:05.837Z,3.20
2019-04-14T08:33:42.022Z,3.37
2019-04-14T08:36:24.967Z,3.60
2019-04-14T08:39:01.498Z,3.37
2019-04-14T08:41:39.779Z,3.93
2019-04-14T08:44:18.787Z,5.00
2019-04-14T08:47:16.388Z,4.90
2019-04-14T08:49:52.283Z,4.93
2019-04-14T08:52:51.168Z,4.80
2019-04-14T08:55:48.032Z,4.63
2019-04-14T08:58:27.624Z,4.90
2019-04-14T09:01:11.823Z,5.43
2019-04-14T09:04:03.824Z,5.07
2019-04-14T09:06:51.758Z,5.37
2019-04-14T09:09:54.777Z,5.07
2019-04-14T09:12:32.042Z,4.87
2019-04-14T09:15:04.253Z,5.10
2019-04-14T09:17:38.241Z,4.80
2019-04-14T09:20:16.239Z,5.60
2019-04-14T09:22:51.069Z,5.23
2019-04-14T09:25:25.594Z,5.23
2019-04-14T09:27:55.978Z,5.50
2019-04-14T09:30:26.889Z,5.20
2019-04-14T09:33:02.599Z,5.20
2019-04-14T09:35:34.484Z,4.90
2019-04-14T09:38:05.777Z,4.60
2019-04-14T09:40:36.786Z,4.73
2019-04-14T09:43:11.282Z,4.57
2019-04-14T09:45:43.344Z,5.00
2019-04-14T09:48:16.130Z,4.80
2019-04-14T09:50:48.276Z,4.80
2019-04-14T09:53:24.301Z,4.50
2019-04-14T09:55:59.858Z,4.60
2019-04-14T09:58:30.557Z,4.60
2019-04-14T10:01:01.223Z,4.43
2019-04-14T10:03:32.267Z,4.40
2019-04-14T10:06:04.884Z,4.60
2019-04-14T10:08:42.274Z,4.27
2019-04-14T10:11:15.113Z,4.40
2019-04-14T10:13:45.793Z,4.40
2019-04-14T10:16:18.221Z,4.30
2019-04-14T10:18:49.366Z,4.77
2019-04-14T10:21:19.999Z,4.27
2019-04-14T10:23:52.235Z,4.27
2019-04-14T10:26:24.802Z,4.37
2019-04-14T10:28:56.035Z,4.30
2019-04-14T10:31:28.541Z,4.03
2019-04-14T10:33:59.554Z,4.20
2019-04-14T10:36:34.112Z,3.93
2019-04-14T10:39:07.399Z,4.07
2019-04-14T10:41:37.982Z,3.97
2019-04-14T10:44:12.007Z,4.50
2019-04-14T10:46:42.117Z,4.30
2019-04-14T10:49:13.239Z,4.03
2019-04-14T10:51:47.834Z,4.23
2019-04-14T10:54:21.595Z,4.13
2019-04-14T10:56:53.998Z,3.80
2019-04-14T10:59:26.953Z,3.93
2019-04-14T11:01:59.496Z,3.90
2019-04-14T11:04:32.963Z,3.93
2019-04-14T11:07:12.510Z,3.90
2019-04-14T11:09:43.539Z,4.10
2019-04-14T11:12:17.352Z,3.60
2019-04-14T11:14:50.716Z,3.90
2019-04-14T11:17:21.898Z,3.83
2019-04-14T11:19:54.870Z,3.90
2019-04-14T11:22:25.913Z,4.00
2019-04-14T11:24:57.234Z,4.07
2019-04-14T11:27:32.471Z,4.00
2019-04-14T11:30:07.582Z,3.77
2019-04-14T11:33:06.721Z,3.83
2019-04-14T11:35:59.253Z,3.70
2019-04-14T11:38:38.705Z,3.80
2019-04-14T11:41:13.861Z,3.80
2019-04-14T11:43:44.984Z,3.73
2019-04-14T11:46:18.201Z,3.90
2019-04-14T11:48:52.177Z,3.33
2019-04-14T11:51:31.993Z,3.67
2019-04-14T11:54:02.227Z,3.80
2019-04-14T11:56:34.613Z,3.40
2019-04-14T11:59:04.925Z,3.83
2019-04-14T12:01:49.150Z,3.63
2019-04-14T12:04:40.275Z,3.57
2019-04-14T12:07:32.871Z,3.50
2019-04-14T12:10:13.520Z,3.47
2019-04-14T12:12:46.316Z,3.63
2019-04-14T12:15:20.794Z,3.80
2019-04-14T12:17:51.674Z,3.63
2019-04-14T12:20:23.641Z,3.90
2019-04-14T12:22:56.202Z,3.70
2019-04-14T12:25:31.315Z,3.50
2019-04-14T12:28:06.976Z,3.50
2019-04-14T12:30:37.770Z,3.60
2019-04-14T12:33:12.264Z,3.40
2019-04-14T12:35:44.509Z,3.60
2019-04-14T12:38:20.171Z,3.60
2019-04-14T12:40:57.768Z,3.83
2019-04-14T12:43:50.094Z,3.60
2019-04-14T12:46:46.161Z,3.77
2019-04-14T12:49:32.452Z,3.63
2019-04-14T12:52:27.922Z,3.63
2019-04-14T12:54:59.045Z,4.10
2019-04-14T12:57:46.486Z,3.90
2019-04-14T13:00:37.011Z,3.50
2019-04-14T13:03:24.692Z,3.60
2019-04-14T13:05:55.784Z,3.90
2019-04-14T13:08:26.168Z,3.90
2019-04-14T13:11:01.476Z,3.50
2019-04-14T13:13:36.382Z,3.67
2019-04-14T13:16:08.958Z,3.40
2019-04-14T13:18:39.353Z,3.47
2019-04-14T13:21:12.333Z,3.73
2019-04-14T13:23:42.666Z,3.40
2019-04-14T13:26:15.754Z,3.60
2019-04-14T13:28:46.009Z,3.70
2019-04-14T13:31:17.354Z,3.40
2019-04-14T13:33:51.801Z,3.30
2019-04-14T13:36:22.774Z,3.40
2019-04-14T13:38:55.579Z,3.23
2019-04-14T13:41:28.664Z,3.40
2019-04-14T13:44:00.222Z,3.40
2019-04-14T13:46:31.364Z,3.20
2019-04-14T13:49:02.193Z,3.23
2019-04-14T13:51:37.565Z,3.50
2019-04-14T13:54:07.952Z,3.40
2019-04-14T13:56:41.232Z,3.50
2019-04-14T13:59:16.890Z,3.43
2019-04-14T14:01:48.040Z,3.07
2019-04-14T14:04:18.742Z,3.13
2019-04-14T14:06:51.182Z,3.00
2019-04-14T14:09:21.574Z,3.10
2019-04-14T14:12:09.074Z,3.10
2019-04-14T14:15:04.074Z,3.20
2019-04-14T14:17:45.383Z,3.17
2019-04-14T14:20:47.464Z,3.20
2019-04-14T14:23:36.030Z,3.23
2019-04-14T14:26:14.176Z,3.17
2019-04-14T14:28:47.915Z,3.00
2019-04-14T14:31:22.507Z,3.00
2019-04-14T14:33:53.234Z,3.00
2019-04-14T14:36:24.054Z,2.90
2019-04-14T14:38:59.190Z,3.00
2019-04-14T14:41:33.562Z,3.00
2019-04-14T14:44:04.923Z,3.20
2019-04-14T14:47:10.025Z,2.87
2019-04-14T14:50:00.881Z,3.17
2019-04-14T14:52:33.687Z,2.67
2019-04-14T14:55:06.795Z,2.97
2019-04-14T14:57:37.178Z,3.07
2019-04-14T15:00:25.447Z,2.90
2019-04-14T15:02:57.707Z,2.90
2019-04-14T15:05:31.749Z,3.00
2019-04-14T15:08:02.248Z,3.30
2019-04-14T15:10:35.459Z,2.87
2019-04-14T15:13:11.741Z,2.97
2019-04-14T15:15:42.991Z,3.00
2019-04-14T15:18:14.406Z,3.10
2019-04-14T15:20:50.828Z,2.97
2019-04-14T15:23:25.353Z,3.00
2019-04-14T15:25:55.825Z,3.03
2019-04-14T15:28:27.974Z,2.90
2019-04-14T15:31:00.054Z,2.90
2019-04-14T15:33:35.802Z,2.83
2019-04-14T15:36:07.933Z,3.10
2019-04-14T15:38:40.986Z,2.80
2019-04-14T15:41:12.285Z,2.80
2019-04-14T15:43:44.477Z,3.00
2019-04-14T15:46:15.921Z,2.80
2019-04-14T15:48:50.359Z,3.17
2019-04-14T15:51:21.391Z,3.20
2019-04-14T15:53:51.768Z,2.90
2019-04-14T15:56:47.595Z,3.13
2019-04-14T15:59:42.696Z,2.90
2019-04-14T16:02:22.344Z,2.93
2019-04-14T16:05:32.359Z,3.20
2019-04-14T16:08:22.739Z,2.90
2019-04-14T16:11:13.898Z,3.10
2019-04-14T16:14:04.945Z,3.00
2019-04-14T16:16:58.422Z,3.10
2019-04-14T16:19:34.185Z,2.60
2019-04-14T16:22:04.585Z,3.00
2019-04-14T16:24:39.905Z,3.13
2019-04-14T16:27:28.778Z,2.97
2019-04-14T16:30:19.308Z,2.97
2019-04-14T16:33:12.245Z,2.90
2019-04-14T16:35:42.894Z,2.93
2019-04-14T16:38:13.331Z,2.80
2019-04-14T16:40:44.480Z,2.90
2019-04-14T16:43:17.210Z,3.00
2019-04-14T16:45:48.471Z,2.90
2019-04-14T16:48:20.790Z,3.00
2019-04-14T16:50:54.621Z,2.90
2019-04-14T16:53:30.013Z,2.80
2019-04-14T16:56:29.169Z,2.90
2019-04-14T16:59:13.018Z,2.90
2019-04-14T17:01:47.394Z,3.10
2019-04-14T17:04:21.299Z,2.90
2019-04-14T17:06:53.681Z,3.07
2019-04-14T17:09:26.662Z,3.20
2019-04-14T17:12:00.396Z,2.63
2019-04-14T17:14:43.895Z,2.90
2019-04-14T17:17:47.382Z,2.73
2019-04-14T17:20:44.334Z,2.70
2019-04-14T17:23:43.442Z,2.83
2019-04-14T17:26:25.301Z,3.00
2019-04-14T17:29:10.989Z,2.90
2019-04-14T17:32:11.759Z,2.87
2019-04-14T17:35:07.963Z,2.87
2019-04-14T17:37:50.604Z,3.10
2019-04-14T17:40:46.412Z,2.80
2019-04-14T17:43:22.542Z,3.10
2019-04-14T17:46:08.314Z,3.07
2019-04-14T17:48:57.930Z,3.13
2019-04-14T17:51:50.688Z,3.00
2019-04-14T17:54:43.103Z,2.90
2019-04-14T17:57:51.033Z,3.10
2019-04-14T18:00:40.896Z,3.40
2019-04-14T18:03:29.175Z,3.00
2019-04-14T18:06:13.864Z,3.30
2019-04-14T18:09:06.915Z,3.27
2019-04-14T18:11:56.076Z,3.60
2019-04-14T18:14:45.950Z,3.53
2019-04-14T18:17:36.689Z,3.67
2019-04-14T18:20:13.113Z,3.50
2019-04-14T18:22:47.757Z,3.60
2019-04-14T18:25:20.389Z,3.60
2019-04-14T18:28:10.717Z,3.70
2019-04-14T18:30:47.846Z,3.60
2019-04-14T18:33:27.558Z,3.80
2019-04-14T18:36:08.237Z,4.10
2019-04-14T18:39:08.790Z,3.80
2019-04-14T18:41:50.012Z,4.07
2019-04-14T18:44:31.301Z,3.83
2019-04-14T18:47:13.729Z,3.90
2019-04-14T18:50:06.048Z,4.07
2019-04-14T18:52:51.875Z,3.87
2019-04-14T18:55:43.906Z,3.97
2019-04-14T18:58:39.693Z,4.50
2019-04-14T19:01:14.752Z,4.60
2019-04-14T19:03:48.720Z,4.90
2019-04-14T19:06:19.787Z,4.80
2019-04-14T19:08:53.639Z,5.00
2019-04-14T19:11:49.838Z,4.87
2019-04-14T19:14:31.106Z,4.77
2019-04-14T19:17:07.668Z,4.90
2019-04-14T19:19:41.374Z,4.97
2019-04-14T19:22:15.286Z,5.70
2019-04-14T19:24:49.336Z,5.27
2019-04-14T19:27:22.675Z,4.90
2019-04-14T19:29:55.737Z,5.17
2019-04-14T19:32:27.747Z,5.07
2019-04-14T19:35:02.676Z,5.20
2019-04-14T19:37:33.653Z,5.07
2019-04-14T19:40:05.743Z,5.40
2019-04-14T19:42:39.588Z,5.37
2019-04-14T19:45:16.361Z,5.33
2019-04-14T19:47:47.403Z,5.20
2019-04-14T19:50:20.296Z,5.60
2019-04-14T19:52:51.848Z,5.60
2019-04-14T19:55:25.237Z,5.40
2019-04-14T19:57:56.949Z,5.20
2019-04-14T20:00:30.197Z,5.30
2019-04-14T20:03:00.868Z,5.53
2019-04-14T20:05:34.658Z,5.60
2019-04-14T20:08:06.337Z,5.40
2019-04-14T20:10:37.052Z,5.80
2019-04-14T20:13:09.267Z,5.80
2019-04-14T20:15:59.302Z,5.40
2019-04-14T20:19:10.304Z,5.40
2019-04-14T20:21:58.159Z,5.70
2019-04-14T20:24:35.674Z,5.10
2019-04-14T20:27:47.260Z,5.73
2019-04-14T20:30:29.096Z,5.40
2019-04-14T20:33:00.263Z,5.57
2019-04-14T20:35:31.555Z,5.37
2019-04-14T20:38:02.614Z,5.30
2019-04-14T20:40:33.753Z,5.43
2019-04-14T20:43:06.009Z,5.17
2019-04-14T20:45:40.379Z,5.20
2019-04-14T20:48:12.179Z,5.00
2019-04-14T20:50:50.573Z,5.40
2019-04-14T20:53:25.249Z,5.43
2019-04-14T20:56:02.788Z,5.50
2019-04-14T20:58:36.403Z,5.10
2019-04-14T21:01:09.189Z,5.60
2019-04-14T21:03:57.480Z,5.00
2019-04-14T21:06:56.325Z,5.40
2019-04-14T21:09:37.106Z,5.20
2019-04-14T21:12:22.724Z,5.37
2019-04-14T21:15:05.498Z,5.27
2019-04-14T21:17:59.070Z,5.00
2019-04-14T21:20:56.077Z,5.10
2019-04-14T21:23:57.843Z,4.80
2019-04-14T21:26:51.910Z,4.87
2019-04-14T21:29:35.303Z,5.60
2019-04-14T21:32:13.505Z,5.07
2019-04-14T21:35:07.081Z,4.93
2019-04-14T21:38:01.303Z,5.00
2019-04-14T21:40:54.349Z,4.97
2019-04-14T21:43:25.717Z,5.00
2019-04-14T21:45:58.535Z,4.93
2019-04-14T21:48:32.426Z,5.17
2019-04-14T21:51:03.422Z,4.80
2019-04-14T21:53:35.493Z,4.97
2019-04-14T21:56:13.190Z,4.70
2019-04-14T21:58:50.078Z,4.67
2019-04-14T22:01:54.709Z,5.00
2019-04-14T22:04:51.725Z,4.60
2019-04-14T22:07:34.518Z,4.70
2019-04-14T22:10:40.822Z,4.70
2019-04-14T22:13:11.526Z,4.60
2019-04-14T22:15:46.823Z,4.90
2019-04-14T22:18:22.150Z,4.90
2019-04-14T22:20:54.845Z,4.73
2019-04-14T22:23:28.273Z,5.00
2019-04-14T22:26:03.122Z,4.60
2019-04-14T22:28:36.451Z,4.60
2019-04-14T22:31:07.561Z,4.70
2019-04-14T22:33:38.061Z,4.53
2019-04-14T22:36:08.581Z,4.70
2019-04-14T22:38:39.024Z,4.50
2019-04-14T22:41:10.285Z,4.70
2019-04-14T22:43:42.008Z,4.33
2019-04-14T22:46:12.665Z,4.77
2019-04-14T22:48:43.375Z,4.50
2019-04-14T22:51:14.028Z,4.90
2019-04-14T22:53:44.795Z,4.50
2019-04-14T22:56:17.438Z,4.90
2019-04-14T22:58:50.449Z,4.57
2019-04-14T23:01:24.689Z,4.67
2019-04-14T23:04:21.905Z,4.67
2019-04-14T23:07:11.565Z,4.47
2019-04-14T23:09:52.989Z,4.30
2019-04-14T23:12:48.186Z,4.40
2019-04-14T23:15:39.080Z,4.47
2019-04-14T23:18:25.713Z,4.37
2019-04-14T23:21:24.626Z,4.10
2019-04-14T23:24:16.932Z,4.47
2019-04-14T23:26:52.754Z,4.50
2019-04-14T23:29:23.819Z,4.60
2019-04-14T23:31:57.291Z,4.87
2019-04-14T23:34:28.573Z,4.30
2019-04-14T23:36:59.404Z,4.60
2019-04-14T23:39:31.754Z,4.60
2019-04-14T23:42:02.689Z,4.70
2019-04-14T23:44:33.234Z,4.30
2019-04-14T23:47:05.549Z,4.43
2019-04-14T23:49:35.905Z,4.47
2019-04-14T23:52:06.917Z,4.33
2019-04-14T23:54:37.265Z,4.40
2019-04-14T23:57:08.558Z,4.40
2019-04-14T23:59:38.941Z,4.23
